This is the latest recevied weather packets stored in our database for station/object ES2ADF-5. If no packets are shown the sender has not sent any weather packets the latest 10 day(s).
| Time | Temp. | Humidity | Pressure | Rain* | Wind** | Luminosity | Snow |
|---|---|---|---|---|---|---|---|
| 1787817500 | 20° C | 64% | 1028.4 hPa | 0 mm | - | - | - |
| 1787817200 | 20° C | 64% | 1028.4 hPa | 0 mm | - | - | - |
| 1787816900 | 20° C | 64% | 1028.5 hPa | 0 mm | - | - | - |
| 1787816599 | 20° C | 63% | 1028.4 hPa | 0 mm | - | - | - |
| 1787816299 | 20° C | 63% | 1028.4 hPa | 0 mm | - | - | - |
| 1787815999 | 20.56° C | 62% | 1028.3 hPa | 0 mm | - | - | - |
| 1787815698 | 20.56° C | 60% | 1028.3 hPa | 0 mm | - | - | - |
| 1787815398 | 21.11° C | 59% | 1028.2 hPa | 0 mm | - | - | - |
| 1787815098 | 21.67° C | 57% | 1028.1 hPa | 0 mm | - | - | - |
| 1787814798 | 23.33° C | 53% | 1028.1 hPa | 0 mm | - | - | - |
| 1787814497 | 24.44° C | 52% | 1028 hPa | 0 mm | - | - | - |
| 1787814197 | 25.56° C | 51% | 1028.1 hPa | 0 mm | - | - | - |
| 1787813897 | 26.11° C | 52% | 1027.7 hPa | 0 mm | - | - | - |
| 1787813596 | 26.11° C | 52% | 1027.7 hPa | 0 mm | - | - | - |
| 1787813296 | 26.11° C | 53% | 1027.7 hPa | 0 mm | - | - | - |
| 1787812996 | 26.11° C | 52% | 1027.7 hPa | 0 mm | - | - | - |
| 1787812696 | 26.11° C | 53% | 1027.6 hPa | 0 mm | - | - | - |
| 1787812395 | 25° C | 54% | 1027.7 hPa | 0 mm | - | - | - |
| 1787812095 | 25° C | 55% | 1027.7 hPa | 0 mm | - | - | - |
| 1787811795 | 24.44° C | 55% | 1027.7 hPa | 0 mm | - | - | - |
| 1787811494 | 25° C | 55% | 1027.7 hPa | 0 mm | - | - | - |
| 1787811194 | 25.56° C | 55% | 1027.8 hPa | 0 mm | - | - | - |
| 1787810894 | 25.56° C | 55% | 1027.8 hPa | 0 mm | - | - | - |
| 1787810593 | 25° C | 57% | 1028.1 hPa | 0 mm | - | - | - |
| 1787810293 | 23.89° C | 58% | 1028.1 hPa | 0 mm | - | - | - |
* Rain latest hour (hover to see other rain measurements)
** Current wind speed in m/s (hover to see current wind gust speed)